createdAt,value
2023-07-26T00:01:29.564Z,14.92
2023-07-26T00:03:29.867Z,14.86
2023-07-26T00:05:30.166Z,14.88
2023-07-26T00:07:30.510Z,14.84
2023-07-26T00:09:31.227Z,14.85
2023-07-26T00:11:31.460Z,14.82
2023-07-26T00:13:31.774Z,14.84
2023-07-26T00:15:32.096Z,14.85
2023-07-26T00:17:32.399Z,14.82
2023-07-26T00:19:32.676Z,14.81
2023-07-26T00:21:32.946Z,14.88
2023-07-26T00:23:33.291Z,14.88
2023-07-26T00:25:33.639Z,14.86
2023-07-26T00:27:33.885Z,14.85
2023-07-26T00:29:34.184Z,14.85
2023-07-26T00:31:34.636Z,14.88
2023-07-26T00:33:34.929Z,14.86
2023-07-26T00:35:35.213Z,14.85
2023-07-26T00:37:35.524Z,14.85
2023-07-26T00:39:35.837Z,14.85
2023-07-26T00:41:36.136Z,14.85
2023-07-26T00:43:36.537Z,14.82
2023-07-26T00:45:36.844Z,14.77
2023-07-26T00:47:37.226Z,14.70
2023-07-26T00:49:37.950Z,14.68
2023-07-26T00:51:38.703Z,14.66
2023-07-26T00:53:38.961Z,14.63
2023-07-26T00:55:39.288Z,14.68
2023-07-26T00:57:39.608Z,14.62
2023-07-26T00:59:39.889Z,14.65
2023-07-26T01:01:40.197Z,14.65
2023-07-26T01:03:40.519Z,14.69
2023-07-26T01:05:40.792Z,14.66
2023-07-26T01:07:41.124Z,14.69
2023-07-26T01:09:41.425Z,14.68
2023-07-26T01:11:41.756Z,14.69
2023-07-26T01:13:42.086Z,14.66
2023-07-26T01:15:42.375Z,14.63
2023-07-26T01:17:42.694Z,14.65
2023-07-26T01:19:43.335Z,14.63
2023-07-26T01:21:43.649Z,14.65
2023-07-26T01:23:43.967Z,14.65
2023-07-26T01:25:44.228Z,14.66
2023-07-26T01:27:44.677Z,14.69
2023-07-26T01:29:44.933Z,14.68
2023-07-26T01:31:45.226Z,14.72
2023-07-26T01:33:45.691Z,14.77
2023-07-26T01:35:50.883Z,14.81
2023-07-26T01:37:51.180Z,14.82
2023-07-26T01:39:51.477Z,14.88
2023-07-26T01:41:52.188Z,14.88
2023-07-26T01:43:52.479Z,14.89
2023-07-26T01:45:52.901Z,14.89
2023-07-26T01:47:53.258Z,14.91
2023-07-26T01:49:53.674Z,14.91
2023-07-26T01:51:53.947Z,14.94
2023-07-26T01:53:54.621Z,14.97
2023-07-26T01:55:54.987Z,14.94
2023-07-26T01:57:55.284Z,14.94
2023-07-26T01:59:55.617Z,14.91
2023-07-26T02:01:57.893Z,14.92
2023-07-26T02:03:58.596Z,14.91
2023-07-26T02:05:59.195Z,14.88
2023-07-26T02:07:59.506Z,14.89
2023-07-26T02:10:00.408Z,14.88
2023-07-26T02:12:00.705Z,14.88
2023-07-26T02:14:00.981Z,14.86
2023-07-26T02:16:01.329Z,14.88
2023-07-26T02:18:01.668Z,14.89
2023-07-26T02:20:01.968Z,14.89
2023-07-26T02:22:02.252Z,14.88
2023-07-26T02:24:02.530Z,14.86
2023-07-26T02:26:02.798Z,14.86
2023-07-26T02:28:03.145Z,14.82
2023-07-26T02:30:03.456Z,14.81
2023-07-26T02:32:03.879Z,14.79
2023-07-26T02:34:04.155Z,14.77
2023-07-26T02:36:04.535Z,14.73
2023-07-26T02:38:05.317Z,14.70
2023-07-26T02:40:05.622Z,14.73
2023-07-26T02:42:05.945Z,14.72
2023-07-26T02:44:06.233Z,14.69
2023-07-26T02:46:06.553Z,14.69
2023-07-26T02:48:06.883Z,14.68
2023-07-26T02:50:07.151Z,14.68
2023-07-26T02:52:07.483Z,14.65
2023-07-26T02:54:07.743Z,14.66
2023-07-26T02:56:08.031Z,14.63
2023-07-26T02:58:08.368Z,14.66
2023-07-26T03:00:08.638Z,14.66
2023-07-26T03:02:08.955Z,14.69
2023-07-26T03:04:09.558Z,14.72
2023-07-26T03:06:09.842Z,14.68
2023-07-26T03:08:10.188Z,14.70
2023-07-26T03:10:10.491Z,14.73
2023-07-26T03:12:10.790Z,14.73
2023-07-26T03:14:11.077Z,14.72
2023-07-26T03:16:11.519Z,14.70
2023-07-26T03:18:11.823Z,14.66
2023-07-26T03:20:12.108Z,14.62
2023-07-26T03:22:12.429Z,14.60
2023-07-26T03:24:12.777Z,14.53
2023-07-26T03:26:13.057Z,14.50
2023-07-26T03:28:13.402Z,14.37
2023-07-26T03:30:13.729Z,14.35
2023-07-26T03:32:13.969Z,14.29
2023-07-26T03:34:14.340Z,14.28
2023-07-26T03:36:14.622Z,14.26
2023-07-26T03:38:14.900Z,14.17
2023-07-26T03:40:15.230Z,14.12
2023-07-26T03:42:15.502Z,14.12
2023-07-26T03:44:15.845Z,14.12
2023-07-26T03:46:16.152Z,14.08
2023-07-26T03:48:16.472Z,14.08
2023-07-26T03:50:16.734Z,14.05
2023-07-26T03:52:17.160Z,14.00
2023-07-26T03:54:17.450Z,13.95
2023-07-26T03:56:17.722Z,13.95
2023-07-26T03:58:18.008Z,13.90
2023-07-26T04:00:18.447Z,13.89
2023-07-26T04:02:18.784Z,13.86
2023-07-26T04:04:23.904Z,13.86
2023-07-26T04:06:24.319Z,13.83
2023-07-26T04:08:24.597Z,13.83
2023-07-26T04:10:24.895Z,13.78
2023-07-26T04:12:25.177Z,13.81
2023-07-26T04:14:25.468Z,13.77
2023-07-26T04:16:25.831Z,13.79
2023-07-26T04:18:26.121Z,13.78
2023-07-26T04:20:26.428Z,13.78
2023-07-26T04:22:26.758Z,13.79
2023-07-26T04:24:27.102Z,13.81
2023-07-26T04:26:27.476Z,13.86
2023-07-26T04:28:27.809Z,13.87
2023-07-26T04:30:28.160Z,13.86
2023-07-26T04:32:28.524Z,13.90
2023-07-26T04:34:28.887Z,13.93
2023-07-26T04:36:29.180Z,13.99
2023-07-26T04:38:29.523Z,14.05
2023-07-26T04:40:29.799Z,14.11
2023-07-26T04:42:30.110Z,14.14
2023-07-26T04:44:30.536Z,14.17
2023-07-26T04:46:31.279Z,14.20
2023-07-26T04:48:32.095Z,14.23
2023-07-26T04:50:32.723Z,14.26
2023-07-26T04:52:33.045Z,14.28
2023-07-26T04:54:33.393Z,14.33
2023-07-26T04:56:34.117Z,14.37
2023-07-26T04:58:34.625Z,14.43
2023-07-26T05:00:34.930Z,14.45
2023-07-26T05:02:35.254Z,14.47
2023-07-26T05:04:35.596Z,14.50
2023-07-26T05:06:36.747Z,14.55
2023-07-26T05:08:37.025Z,14.60
2023-07-26T05:10:37.305Z,14.63
2023-07-26T05:12:37.625Z,14.65
2023-07-26T05:14:37.873Z,14.65
2023-07-26T05:16:38.248Z,14.66
2023-07-26T05:18:38.501Z,14.60
2023-07-26T05:20:38.846Z,14.63
2023-07-26T05:22:39.099Z,14.60
2023-07-26T05:24:39.462Z,14.58
2023-07-26T05:26:39.770Z,14.62
2023-07-26T05:28:40.142Z,14.63
2023-07-26T05:30:40.413Z,14.66
2023-07-26T05:32:40.761Z,14.72
2023-07-26T05:34:41.127Z,14.79
2023-07-26T05:36:41.447Z,14.84
2023-07-26T05:38:41.685Z,14.86
2023-07-26T05:40:42.003Z,14.86
2023-07-26T05:42:42.296Z,14.86
2023-07-26T05:44:42.572Z,14.88
2023-07-26T05:46:42.894Z,14.86
2023-07-26T05:48:43.205Z,14.89
2023-07-26T05:50:43.474Z,14.88
2023-07-26T05:52:45.204Z,14.96
2023-07-26T05:54:45.623Z,14.96
2023-07-26T05:56:45.976Z,15.02
2023-07-26T05:58:47.367Z,14.99
2023-07-26T06:00:48.045Z,14.97
2023-07-26T06:02:48.455Z,14.99
2023-07-26T06:04:48.726Z,15.00
2023-07-26T06:06:48.998Z,15.02
2023-07-26T06:08:49.339Z,15.02
2023-07-26T06:10:49.608Z,15.06
2023-07-26T06:12:49.918Z,15.09
2023-07-26T06:14:50.191Z,15.09
2023-07-26T06:16:50.573Z,15.06
2023-07-26T06:18:50.883Z,14.96
2023-07-26T06:20:51.266Z,14.92
2023-07-26T06:22:51.586Z,14.96
2023-07-26T06:24:51.890Z,14.96
2023-07-26T06:26:52.136Z,14.94
2023-07-26T06:28:52.533Z,14.92
2023-07-26T06:30:52.815Z,14.78
2023-07-26T06:32:53.138Z,14.79
2023-07-26T06:34:53.579Z,14.73
2023-07-26T06:36:53.826Z,14.65
2023-07-26T06:38:54.096Z,14.58
2023-07-26T06:40:54.407Z,14.50
2023-07-26T06:42:54.724Z,14.40
2023-07-26T06:44:55.063Z,14.40
2023-07-26T06:46:55.377Z,14.40
2023-07-26T06:48:55.768Z,14.35
2023-07-26T06:50:56.122Z,14.43
2023-07-26T06:52:56.404Z,14.41
2023-07-26T06:54:56.702Z,14.41
2023-07-26T06:56:56.973Z,14.40
2023-07-26T06:58:57.400Z,14.23
2023-07-26T07:00:57.668Z,14.20
2023-07-26T07:02:58.056Z,14.22
2023-07-26T07:04:58.480Z,14.17
2023-07-26T07:06:58.885Z,14.18
2023-07-26T07:08:59.488Z,14.14
2023-07-26T07:10:59.944Z,14.14
2023-07-26T07:13:00.208Z,14.11
2023-07-26T07:15:00.494Z,14.14
2023-07-26T07:17:00.788Z,14.22
2023-07-26T07:19:01.111Z,14.25
2023-07-26T07:21:01.470Z,14.37
2023-07-26T07:23:01.810Z,14.50
2023-07-26T07:25:02.141Z,14.68
2023-07-26T07:27:02.390Z,14.84
2023-07-26T07:29:02.698Z,14.94
2023-07-26T07:31:03.013Z,14.99
2023-07-26T07:33:03.429Z,15.03
2023-07-26T07:35:03.741Z,15.18
2023-07-26T07:37:04.088Z,15.24
2023-07-26T07:39:04.323Z,15.39
2023-07-26T07:41:04.654Z,15.37
2023-07-26T07:43:05.018Z,15.37
2023-07-26T07:45:05.281Z,15.43
2023-07-26T07:47:07.149Z,15.51
2023-07-26T07:49:08.993Z,15.36
2023-07-26T07:51:09.310Z,15.37
2023-07-26T07:53:09.622Z,15.47
2023-07-26T07:55:09.884Z,15.65
2023-07-26T07:57:10.222Z,15.79
2023-07-26T07:59:10.551Z,15.86
2023-07-26T08:01:10.897Z,16.01
2023-07-26T08:03:11.303Z,16.12
2023-07-26T08:05:11.906Z,16.20
2023-07-26T08:07:12.175Z,16.24
2023-07-26T08:09:12.487Z,16.24
2023-07-26T08:11:12.801Z,16.21
2023-07-26T08:13:13.110Z,16.17
2023-07-26T08:15:13.385Z,16.21
2023-07-26T08:17:13.715Z,16.36
2023-07-26T08:19:14.013Z,16.54
2023-07-26T08:21:14.357Z,16.74
2023-07-26T08:23:14.635Z,16.76
2023-07-26T08:25:15.273Z,16.90
2023-07-26T08:27:15.576Z,16.90
2023-07-26T08:29:15.915Z,16.87
2023-07-26T08:31:16.259Z,16.94
2023-07-26T08:33:16.530Z,17.08
2023-07-26T08:35:16.995Z,16.99
2023-07-26T08:37:17.356Z,16.90
2023-07-26T08:39:33.858Z,16.87
2023-07-26T08:41:22.829Z,17.04
2023-07-26T08:43:23.115Z,17.04
2023-07-26T08:45:24.255Z,16.97
2023-07-26T08:47:24.587Z,17.06
2023-07-26T08:49:24.931Z,17.05
2023-07-26T08:51:25.301Z,17.12
2023-07-26T08:53:25.604Z,17.06
2023-07-26T08:55:25.906Z,16.97
2023-07-26T08:57:26.231Z,17.02
2023-07-26T08:59:26.493Z,17.04
2023-07-26T09:01:26.837Z,17.01
2023-07-26T09:03:27.173Z,16.93
2023-07-26T09:05:27.494Z,16.87
2023-07-26T09:07:27.833Z,16.89
2023-07-26T09:09:28.110Z,16.94
2023-07-26T09:11:28.435Z,16.97
2023-07-26T09:13:28.730Z,17.05
2023-07-26T09:15:29.009Z,17.34
2023-07-26T09:17:29.852Z,17.45
2023-07-26T09:19:30.120Z,17.71
2023-07-26T09:21:30.973Z,18.04
2023-07-26T09:23:32.356Z,18.41
2023-07-26T09:25:32.681Z,18.68
2023-07-26T09:27:33.002Z,18.65
2023-07-26T09:29:33.310Z,18.83
2023-07-26T09:31:33.905Z,19.00
2023-07-26T09:33:34.543Z,19.07
2023-07-26T09:35:34.834Z,19.04
2023-07-26T09:37:35.150Z,18.96
2023-07-26T09:39:35.417Z,18.81
2023-07-26T09:41:35.739Z,18.83
2023-07-26T09:43:36.058Z,19.08
2023-07-26T09:45:38.392Z,19.09
2023-07-26T09:47:40.978Z,19.04
2023-07-26T09:52:13.999Z,19.15
2023-07-26T09:53:49.988Z,19.15
2023-07-26T09:57:54.160Z,19.55
2023-07-26T09:59:54.605Z,19.69
2023-07-26T10:01:54.864Z,19.67
2023-07-26T10:03:55.227Z,19.37
2023-07-26T10:05:55.506Z,19.44
2023-07-26T10:07:55.832Z,19.69
2023-07-26T10:09:56.187Z,19.74
2023-07-26T10:11:56.453Z,19.79
2023-07-26T10:13:56.754Z,20.07
2023-07-26T10:15:57.062Z,20.03
2023-07-26T10:17:57.444Z,20.00
2023-07-26T10:19:57.727Z,19.71
2023-07-26T10:21:58.041Z,19.86
2023-07-26T10:23:58.551Z,20.18
2023-07-26T10:25:58.892Z,20.58
2023-07-26T10:27:59.150Z,20.69
2023-07-26T10:30:00.222Z,20.87
2023-07-26T10:32:00.544Z,21.03
2023-07-26T10:34:01.012Z,21.30
2023-07-26T10:36:01.306Z,21.24
2023-07-26T10:38:01.577Z,21.18
2023-07-26T10:40:02.049Z,21.12
2023-07-26T10:42:02.323Z,20.85
2023-07-26T10:44:02.726Z,20.95
2023-07-26T10:46:03.019Z,21.14
2023-07-26T10:48:03.391Z,21.32
2023-07-26T10:50:03.790Z,21.80
2023-07-26T10:52:04.199Z,22.04
2023-07-26T10:54:04.503Z,22.39
2023-07-26T10:56:04.810Z,22.36
2023-07-26T10:58:05.092Z,21.88
2023-07-26T11:00:05.460Z,21.55
2023-07-26T11:02:05.903Z,21.22
2023-07-26T11:04:06.202Z,21.32
2023-07-26T11:06:06.907Z,21.62
2023-07-26T11:08:07.179Z,21.83
2023-07-26T11:10:07.449Z,22.08
2023-07-26T11:12:07.952Z,21.91
2023-07-26T11:14:08.329Z,21.51
2023-07-26T11:16:13.897Z,21.03
2023-07-26T11:18:13.804Z,20.95
2023-07-26T11:20:14.152Z,20.92
2023-07-26T11:22:14.435Z,20.70
2023-07-26T11:24:15.405Z,20.55
2023-07-26T11:26:15.630Z,20.47
2023-07-26T11:28:15.901Z,20.31
2023-07-26T11:30:16.212Z,20.19
2023-07-26T11:32:16.523Z,20.09
2023-07-26T11:34:16.825Z,19.95
2023-07-26T11:36:17.090Z,19.69
2023-07-26T11:38:17.420Z,19.54
2023-07-26T11:40:17.695Z,19.55
2023-07-26T11:42:18.031Z,19.54
2023-07-26T11:44:18.797Z,19.27
2023-07-26T11:46:19.225Z,19.09
2023-07-26T11:48:19.573Z,19.27
2023-07-26T11:50:19.908Z,19.30
2023-07-26T11:52:20.227Z,19.30
2023-07-26T11:54:20.598Z,19.40
2023-07-26T11:56:21.797Z,19.67
2023-07-26T11:58:22.062Z,19.92
2023-07-26T12:00:22.387Z,20.47
2023-07-26T12:02:23.298Z,20.92
2023-07-26T12:04:23.766Z,21.36
2023-07-26T12:06:24.114Z,21.30
2023-07-26T12:08:24.390Z,21.21
2023-07-26T12:10:25.374Z,21.15
2023-07-26T12:12:25.724Z,21.11
2023-07-26T12:14:26.054Z,20.84
2023-07-26T12:16:26.328Z,20.70
2023-07-26T12:18:26.635Z,20.67
2023-07-26T12:20:34.239Z,20.44
2023-07-26T12:22:32.054Z,20.13
2023-07-26T12:24:32.467Z,19.86
2023-07-26T12:26:33.581Z,19.63
2023-07-26T12:28:34.288Z,19.34
2023-07-26T12:30:34.741Z,19.07
2023-07-26T12:32:35.220Z,18.78
2023-07-26T12:34:35.537Z,18.81
2023-07-26T12:36:35.971Z,18.95
2023-07-26T12:38:36.387Z,19.24
2023-07-26T12:40:36.773Z,19.54
2023-07-26T12:42:37.066Z,19.84
2023-07-26T12:44:37.426Z,19.89
2023-07-26T12:46:51.558Z,20.11
2023-07-26T12:48:42.834Z,20.25
2023-07-26T12:50:43.223Z,20.81
2023-07-26T12:52:43.589Z,20.66
2023-07-26T12:54:43.841Z,20.34
2023-07-26T12:56:44.204Z,20.18
2023-07-26T12:59:00.718Z,20.13
2023-07-26T13:00:49.675Z,19.92
2023-07-26T13:02:50.162Z,19.76
2023-07-26T13:04:50.487Z,19.67
2023-07-26T13:06:50.774Z,19.58
2023-07-26T13:08:51.041Z,19.52
2023-07-26T13:10:51.343Z,19.37
2023-07-26T13:12:51.633Z,19.00
2023-07-26T13:14:52.114Z,18.28
2023-07-26T13:16:52.345Z,17.39
2023-07-26T13:18:52.671Z,15.97
2023-07-26T13:20:53.024Z,15.14
2023-07-26T13:22:53.434Z,14.78
2023-07-26T13:25:35.281Z,14.63
2023-07-26T13:27:35.580Z,14.54
2023-07-26T13:29:35.871Z,14.51
2023-07-26T13:31:36.199Z,14.33
2023-07-26T13:33:40.889Z,14.33
2023-07-26T13:35:41.677Z,14.51
2023-07-26T13:37:41.942Z,14.68
2023-07-26T13:39:42.258Z,14.81
2023-07-26T13:41:42.526Z,15.00
2023-07-26T13:43:42.843Z,15.04
2023-07-26T13:45:44.245Z,15.03
2023-07-26T13:47:46.642Z,15.21
2023-07-26T13:49:46.891Z,15.18
2023-07-26T13:51:47.272Z,15.10
2023-07-26T13:53:47.646Z,15.27
2023-07-26T13:55:47.988Z,15.47
2023-07-26T13:57:48.338Z,15.91
2023-07-26T13:59:48.702Z,16.36
2023-07-26T14:01:49.006Z,16.87
2023-07-26T14:03:49.312Z,17.48
2023-07-26T14:05:49.638Z,17.46
2023-07-26T14:07:50.048Z,17.63
2023-07-26T14:09:50.308Z,17.60
2023-07-26T14:11:50.629Z,17.19
2023-07-26T14:13:50.895Z,17.05
2023-07-26T14:15:51.252Z,16.89
2023-07-26T14:17:56.422Z,16.99
2023-07-26T14:19:56.745Z,17.20
2023-07-26T14:21:57.019Z,17.51
2023-07-26T14:23:57.299Z,18.05
2023-07-26T14:25:57.620Z,18.62
2023-07-26T14:27:57.901Z,18.56
2023-07-26T14:29:58.218Z,18.70
2023-07-26T14:31:58.636Z,18.92
2023-07-26T14:33:58.981Z,18.95
2023-07-26T14:35:59.264Z,19.15
2023-07-26T14:37:59.572Z,19.33
2023-07-26T14:39:59.866Z,19.52
2023-07-26T14:42:00.155Z,19.59
2023-07-26T14:44:00.477Z,19.48
2023-07-26T14:46:00.826Z,19.70
2023-07-26T14:48:01.115Z,19.48
2023-07-26T14:50:04.533Z,19.85
2023-07-26T14:52:05.488Z,19.81
2023-07-26T14:54:05.778Z,19.52
2023-07-26T14:56:06.133Z,20.09
2023-07-26T14:58:06.397Z,20.66
2023-07-26T15:00:06.716Z,20.81
2023-07-26T15:02:07.021Z,20.48
2023-07-26T15:04:07.431Z,19.84
2023-07-26T15:06:07.741Z,19.30
2023-07-26T15:08:08.070Z,18.75
2023-07-26T15:10:08.421Z,18.47
2023-07-26T15:12:08.693Z,18.28
2023-07-26T15:14:09.010Z,18.07
2023-07-26T15:16:09.300Z,17.97
2023-07-26T15:18:09.656Z,17.86
2023-07-26T15:20:09.981Z,17.94
2023-07-26T15:22:10.339Z,18.00
2023-07-26T15:24:10.656Z,17.85
2023-07-26T15:26:10.951Z,17.78
2023-07-26T15:28:11.254Z,17.70
2023-07-26T15:30:11.643Z,17.67
2023-07-26T15:32:15.450Z,17.70
2023-07-26T15:34:15.840Z,17.72
2023-07-26T15:36:16.137Z,17.63
2023-07-26T15:38:16.412Z,17.56
2023-07-26T15:48:31.604Z,17.85
2023-07-26T15:50:31.891Z,18.04
2023-07-26T15:52:32.173Z,18.28
2023-07-26T15:54:32.483Z,18.65
2023-07-26T15:56:32.816Z,18.99
2023-07-26T15:58:33.801Z,19.24
2023-07-26T16:00:34.114Z,20.10
2023-07-26T16:03:02.937Z,20.82
2023-07-26T16:05:02.937Z,21.37
2023-07-26T16:10:51.235Z,19.94
2023-07-26T16:12:51.551Z,19.56
2023-07-26T16:15:35.632Z,19.14
2023-07-26T16:23:08.693Z,19.54
2023-07-26T16:25:08.963Z,20.10
2023-07-26T16:27:09.242Z,19.96
2023-07-26T16:29:09.629Z,19.86
2023-07-26T16:31:09.863Z,19.56
2023-07-26T16:33:10.192Z,19.33
2023-07-26T16:35:10.464Z,19.11
2023-07-26T16:37:11.611Z,18.83
2023-07-26T16:39:13.519Z,18.65
2023-07-26T16:41:13.833Z,18.52
2023-07-26T16:43:14.111Z,18.35
2023-07-26T16:45:14.429Z,18.34
2023-07-26T16:47:14.795Z,18.38
2023-07-26T16:49:15.171Z,18.44
2023-07-26T16:51:15.491Z,18.41
2023-07-26T16:53:15.824Z,18.34
2023-07-26T16:55:16.107Z,18.35
2023-07-26T16:57:16.379Z,18.19
2023-07-26T16:59:16.689Z,18.01
2023-07-26T17:01:17.029Z,17.90
2023-07-26T17:03:17.394Z,17.89
2023-07-26T17:05:17.814Z,17.89
2023-07-26T17:07:18.120Z,17.92
2023-07-26T17:09:18.443Z,17.89
2023-07-26T17:11:18.744Z,17.79
2023-07-26T17:13:18.999Z,17.70
2023-07-26T17:15:19.295Z,17.49
2023-07-26T17:17:19.603Z,17.45
2023-07-26T17:19:19.869Z,17.48
2023-07-26T17:21:20.170Z,17.54
2023-07-26T17:23:20.477Z,17.60
2023-07-26T17:25:20.832Z,17.71
2023-07-26T17:27:21.095Z,17.87
2023-07-26T17:29:21.407Z,18.00
2023-07-26T17:31:21.743Z,18.16
2023-07-26T17:33:22.096Z,18.33
2023-07-26T17:35:22.357Z,18.43
2023-07-26T17:37:22.678Z,18.43
2023-07-26T17:39:22.980Z,18.34
2023-07-26T17:41:23.286Z,18.37
2023-07-26T17:43:23.598Z,18.38
2023-07-26T17:45:23.950Z,18.34
2023-07-26T17:47:24.299Z,18.28
2023-07-26T17:49:24.599Z,18.19
2023-07-26T17:51:24.893Z,18.07
2023-07-26T17:53:25.177Z,17.98
2023-07-26T17:55:25.490Z,17.86
2023-07-26T17:57:25.802Z,17.80
2023-07-26T17:59:26.063Z,17.70
2023-07-26T18:01:26.394Z,17.57
2023-07-26T18:03:26.805Z,17.49
2023-07-26T18:05:27.121Z,17.48
2023-07-26T18:07:27.398Z,17.36
2023-07-26T18:09:34.732Z,17.29
2023-07-26T18:11:35.021Z,17.24
2023-07-26T18:13:35.281Z,17.14
2023-07-26T18:15:35.651Z,17.19
2023-07-26T18:17:35.952Z,17.22
2023-07-26T18:19:36.295Z,17.22
2023-07-26T18:21:36.656Z,17.15
2023-07-26T18:23:36.950Z,17.16
2023-07-26T18:25:37.232Z,17.26
2023-07-26T18:27:37.616Z,17.26
2023-07-26T18:29:37.855Z,17.29
2023-07-26T18:31:40.486Z,17.27
2023-07-26T18:33:42.323Z,17.31
2023-07-26T18:35:42.621Z,17.31
2023-07-26T18:37:43.115Z,17.26
2023-07-26T18:39:43.553Z,17.20
2023-07-26T18:41:44.130Z,17.19
2023-07-26T18:43:44.559Z,17.09
2023-07-26T18:46:30.855Z,16.99
2023-07-26T18:48:31.562Z,16.96
2023-07-26T18:50:31.934Z,16.90
2023-07-26T18:52:32.254Z,16.89
2023-07-26T18:54:32.583Z,16.76
2023-07-26T18:56:33.083Z,16.69
2023-07-26T18:58:33.852Z,16.61
2023-07-26T19:00:34.338Z,16.57
2023-07-26T19:02:34.885Z,16.50
2023-07-26T19:04:35.224Z,16.41
2023-07-26T19:06:35.737Z,16.29
2023-07-26T19:08:36.114Z,16.21
2023-07-26T19:10:36.510Z,16.15
2023-07-26T19:12:36.779Z,16.04
2023-07-26T19:14:37.181Z,16.00
2023-07-26T19:16:37.752Z,16.00
2023-07-26T19:18:38.186Z,15.94
2023-07-26T19:20:38.571Z,15.92
2023-07-26T19:22:40.980Z,15.88
2023-07-26T19:24:41.436Z,15.84
2023-07-26T19:26:41.744Z,15.86
2023-07-26T19:28:42.131Z,15.83
2023-07-26T19:30:42.437Z,15.80
2023-07-26T19:32:42.764Z,15.83
2023-07-26T19:34:43.018Z,15.79
2023-07-26T19:36:43.343Z,15.68
2023-07-26T19:38:43.676Z,15.65
2023-07-26T19:40:43.937Z,15.59
2023-07-26T19:42:44.257Z,15.58
2023-07-26T19:44:44.570Z,15.52
2023-07-26T19:46:44.867Z,15.49
2023-07-26T19:48:45.280Z,15.51
2023-07-26T19:50:45.562Z,15.49
2023-07-26T19:52:45.823Z,15.43
2023-07-26T19:54:46.162Z,15.42
2023-07-26T19:56:46.415Z,15.42
2023-07-26T19:58:46.788Z,15.36
2023-07-26T20:00:47.046Z,15.27
2023-07-26T20:02:47.421Z,15.27
2023-07-26T20:04:47.782Z,15.24
2023-07-26T20:06:48.068Z,15.25
2023-07-26T20:08:48.421Z,15.19
2023-07-26T20:10:48.734Z,15.17
2023-07-26T20:12:49.134Z,15.15
2023-07-26T20:14:49.469Z,15.09
2023-07-26T20:16:50.046Z,15.04
2023-07-26T20:18:50.517Z,15.03
2023-07-26T20:20:50.821Z,14.92
2023-07-26T20:23:35.923Z,14.96
2023-07-26T20:25:36.404Z,14.89
2023-07-26T20:27:36.782Z,14.89
2023-07-26T20:29:42.127Z,14.91
2023-07-26T20:31:42.618Z,14.88
2023-07-26T20:33:42.994Z,14.88
2023-07-26T20:35:43.330Z,14.92
2023-07-26T20:37:43.596Z,14.89
2023-07-26T20:39:43.928Z,14.88
2023-07-26T20:41:44.447Z,14.88
2023-07-26T20:43:44.717Z,14.85
2023-07-26T20:45:45.039Z,14.86
2023-07-26T20:47:45.406Z,14.88
2023-07-26T20:49:45.660Z,14.86
2023-07-26T20:51:45.965Z,14.84
2023-07-26T20:53:46.243Z,14.79
2023-07-26T20:55:46.516Z,14.79
2023-07-26T20:57:46.860Z,14.77
2023-07-26T20:59:47.173Z,14.79
2023-07-26T21:01:50.104Z,14.82
2023-07-26T21:03:52.188Z,14.88
2023-07-26T21:06:35.509Z,14.88
2023-07-26T21:08:36.014Z,14.81
2023-07-26T21:10:36.319Z,14.81
2023-07-26T21:12:36.609Z,14.78
2023-07-26T21:14:36.921Z,14.81
2023-07-26T21:16:37.626Z,14.81
2023-07-26T21:18:38.124Z,14.78
2023-07-26T21:20:38.405Z,14.73
2023-07-26T21:22:38.857Z,14.72
2023-07-26T21:24:39.179Z,14.66
2023-07-26T21:26:39.490Z,14.65
2023-07-26T21:28:39.786Z,14.65
2023-07-26T21:30:40.057Z,14.66
2023-07-26T21:32:40.403Z,14.65
2023-07-26T21:34:40.676Z,14.60
2023-07-26T21:36:41.001Z,14.60
2023-07-26T21:38:41.255Z,14.54
2023-07-26T21:40:41.561Z,14.51
2023-07-26T21:42:41.851Z,14.58
2023-07-26T21:44:42.210Z,14.54
2023-07-26T21:46:42.535Z,14.55
2023-07-26T21:48:42.809Z,14.53
2023-07-26T21:50:43.131Z,14.55
2023-07-26T21:52:43.538Z,14.53
2023-07-26T21:54:43.796Z,14.48
2023-07-26T21:56:44.104Z,14.45
2023-07-26T21:58:44.459Z,14.45
2023-07-26T22:00:44.712Z,14.44
2023-07-26T22:02:45.060Z,14.43
2023-07-26T22:04:45.431Z,14.47
2023-07-26T22:06:45.717Z,14.51
2023-07-26T22:08:46.013Z,14.44
2023-07-26T22:10:46.313Z,14.47
2023-07-26T22:12:46.599Z,14.47
2023-07-26T22:14:46.890Z,14.48
2023-07-26T22:16:47.230Z,14.45
2023-07-26T22:18:47.550Z,14.47
2023-07-26T22:21:07.707Z,14.50
2023-07-26T22:22:53.064Z,14.54
2023-07-26T22:24:53.430Z,14.59
2023-07-26T22:26:53.762Z,14.59
2023-07-26T22:28:54.090Z,14.62
2023-07-26T22:30:54.385Z,14.65
2023-07-26T22:32:54.737Z,14.65
2023-07-26T22:34:55.075Z,14.54
2023-07-26T22:36:55.369Z,14.55
2023-07-26T22:38:55.668Z,14.59
2023-07-26T22:40:55.960Z,14.58
2023-07-26T22:42:56.307Z,14.58
2023-07-26T22:44:56.606Z,14.54
2023-07-26T22:46:56.914Z,14.55
2023-07-26T22:48:57.184Z,14.58
2023-07-26T22:50:57.532Z,14.53
2023-07-26T22:52:57.768Z,14.51
2023-07-26T22:54:58.056Z,14.55
2023-07-26T22:56:58.413Z,14.58
2023-07-26T22:58:58.672Z,14.59
2023-07-26T23:00:59.032Z,14.58
2023-07-26T23:02:59.446Z,14.60
2023-07-26T23:04:59.796Z,14.66
2023-07-26T23:07:00.085Z,14.66
2023-07-26T23:09:00.351Z,14.73
2023-07-26T23:11:00.651Z,14.72
2023-07-26T23:13:00.952Z,14.73
2023-07-26T23:15:01.263Z,14.79
2023-07-26T23:17:01.535Z,14.81
2023-07-26T23:19:01.828Z,14.88
2023-07-26T23:21:02.104Z,14.91
2023-07-26T23:23:02.436Z,14.94
2023-07-26T23:25:02.691Z,14.94
2023-07-26T23:27:02.981Z,14.94
2023-07-26T23:29:03.316Z,14.92
2023-07-26T23:31:03.658Z,14.99
2023-07-26T23:33:04.007Z,14.99
2023-07-26T23:35:04.278Z,15.03
2023-07-26T23:37:04.594Z,15.03
2023-07-26T23:39:04.879Z,15.06
2023-07-26T23:41:05.172Z,15.04
2023-07-26T23:43:05.480Z,15.07
2023-07-26T23:45:05.775Z,15.11
2023-07-26T23:47:06.056Z,15.10
2023-07-26T23:49:06.329Z,15.10
2023-07-26T23:51:06.640Z,15.07
2023-07-26T23:53:06.932Z,15.09
2023-07-26T23:55:07.249Z,15.09
2023-07-26T23:57:07.507Z,15.04
2023-07-26T23:59:07.805Z,15.07
